createdAt,value
2022-08-09T00:00:00.190Z,20.30
2022-08-09T00:02:28.619Z,20.30
2022-08-09T00:05:00.740Z,20.30
2022-08-09T00:07:30.491Z,20.30
2022-08-09T00:10:11.794Z,20.20
2022-08-09T00:12:45.593Z,20.20
2022-08-09T00:15:14.578Z,20.20
2022-08-09T00:18:05.056Z,20.20
2022-08-09T00:20:28.366Z,20.20
2022-08-09T00:22:58.341Z,20.50
2022-08-09T00:25:36.621Z,20.20
2022-08-09T00:28:06.464Z,20.10
2022-08-09T00:30:33.866Z,20.60
2022-08-09T00:33:00.842Z,20.10
2022-08-09T00:35:28.108Z,20.10
2022-08-09T00:37:56.379Z,20.00
2022-08-09T00:40:23.345Z,20.10
2022-08-09T00:44:14.247Z,20.00
2022-08-09T00:45:50.494Z,20.00
2022-08-09T00:48:20.932Z,19.90
2022-08-09T00:50:52.375Z,19.90
2022-08-09T00:53:24.295Z,19.90
2022-08-09T00:56:03.991Z,19.70
2022-08-09T00:58:34.407Z,19.80
2022-08-09T01:01:06.196Z,19.80
2022-08-09T01:03:57.287Z,19.90
2022-08-09T01:06:54.396Z,19.70
2022-08-09T01:09:36.590Z,19.70
2022-08-09T01:12:21.312Z,19.70
2022-08-09T01:15:06.089Z,19.70
2022-08-09T01:17:57.647Z,19.70
2022-08-09T01:20:49.812Z,19.60
2022-08-09T01:24:13.186Z,19.60
2022-08-09T01:26:53.986Z,19.50
2022-08-09T01:29:29.397Z,19.50
2022-08-09T01:32:30.835Z,19.40
2022-08-09T01:34:59.756Z,19.40
2022-08-09T01:38:05.562Z,19.40
2022-08-09T01:40:28.379Z,19.40
2022-08-09T01:42:56.739Z,19.40
2022-08-09T01:45:24.460Z,19.40
2022-08-09T01:47:52.351Z,19.40
2022-08-09T01:50:36.549Z,19.40
2022-08-09T01:53:19.283Z,19.30
2022-08-09T01:55:47.980Z,19.30
2022-08-09T01:58:17.017Z,19.30
2022-08-09T02:00:46.378Z,19.20
2022-08-09T02:03:19.285Z,19.20
2022-08-09T02:06:03.271Z,19.20
2022-08-09T02:08:57.406Z,19.10
2022-08-09T02:11:42.708Z,19.10
2022-08-09T02:14:15.079Z,19.10
2022-08-09T02:17:15.225Z,19.10
2022-08-09T02:19:43.318Z,19.10
2022-08-09T02:22:46.402Z,19.20
2022-08-09T02:25:19.876Z,19.10
2022-08-09T02:28:00.219Z,19.10
2022-08-09T02:30:31.584Z,19.00
2022-08-09T02:33:00.136Z,19.00
2022-08-09T02:36:01.370Z,19.00
2022-08-09T02:38:27.804Z,18.90
2022-08-09T02:41:19.450Z,18.90
2022-08-09T02:43:55.047Z,18.90
2022-08-09T02:46:27.630Z,18.90
2022-08-09T02:48:58.848Z,18.80
2022-08-09T02:51:27.813Z,18.90
2022-08-09T02:54:02.044Z,18.90
2022-08-09T02:56:32.363Z,18.90
2022-08-09T02:59:04.847Z,18.80
2022-08-09T03:01:58.575Z,18.70
2022-08-09T03:04:22.091Z,18.70
2022-08-09T03:06:56.964Z,18.70
2022-08-09T03:09:27.892Z,18.70
2022-08-09T03:12:05.311Z,18.70
2022-08-09T03:14:36.729Z,18.70
2022-08-09T03:17:05.757Z,18.70
2022-08-09T03:19:52.370Z,18.60
2022-08-09T03:22:25.713Z,18.50
2022-08-09T03:25:06.492Z,18.50
2022-08-09T03:27:50.452Z,18.50
2022-08-09T03:30:29.139Z,18.40
2022-08-09T03:33:13.073Z,18.50
2022-08-09T03:36:15.757Z,18.40
2022-08-09T03:38:41.991Z,18.40
2022-08-09T03:41:14.876Z,18.40
2022-08-09T03:44:03.497Z,18.30
2022-08-09T03:46:30.467Z,18.30
2022-08-09T03:49:03.893Z,18.30
2022-08-09T03:51:55.062Z,18.20
2022-08-09T03:54:29.380Z,18.10
2022-08-09T03:56:59.630Z,18.20
2022-08-09T03:59:52.827Z,18.20
2022-08-09T04:02:14.340Z,18.10
2022-08-09T04:04:46.301Z,18.10
2022-08-09T04:07:14.567Z,18.00
2022-08-09T04:09:50.067Z,18.00
2022-08-09T04:12:44.639Z,18.00
2022-08-09T04:15:17.263Z,18.00
2022-08-09T04:17:59.912Z,17.70
2022-08-09T04:20:26.733Z,18.00
2022-08-09T04:22:55.919Z,18.00
2022-08-09T04:25:22.687Z,18.00
2022-08-09T04:27:49.599Z,18.00
2022-08-09T04:30:26.013Z,18.00
2022-08-09T04:32:54.217Z,18.00
2022-08-09T04:35:21.731Z,18.00
2022-08-09T04:37:49.669Z,17.70
2022-08-09T04:40:19.141Z,17.90
2022-08-09T04:42:48.471Z,18.00
2022-08-09T04:45:16.433Z,17.90
2022-08-09T04:48:00.209Z,18.00
2022-08-09T04:50:33.651Z,17.90
2022-08-09T04:53:02.459Z,17.90
2022-08-09T04:55:38.327Z,17.90
2022-08-09T04:58:17.363Z,18.00
2022-08-09T05:00:44.812Z,18.00
2022-08-09T05:03:41.285Z,17.90
2022-08-09T05:06:04.421Z,18.00
2022-08-09T05:08:33.006Z,18.00
2022-08-09T05:11:01.169Z,18.00
2022-08-09T05:13:32.945Z,18.00
2022-08-09T05:16:00.665Z,18.00
2022-08-09T05:18:37.605Z,18.10
2022-08-09T05:21:20.803Z,18.00
2022-08-09T05:24:00.607Z,18.10
2022-08-09T05:26:45.427Z,18.10
2022-08-09T05:29:21.278Z,18.10
2022-08-09T05:31:57.435Z,18.10
2022-08-09T05:34:30.701Z,18.20
2022-08-09T05:37:01.813Z,18.20
2022-08-09T05:39:36.208Z,18.20
2022-08-09T05:42:09.768Z,18.30
2022-08-09T05:44:44.795Z,18.30
2022-08-09T05:47:14.494Z,18.40
2022-08-09T05:50:35.163Z,18.60
2022-08-09T05:52:27.803Z,18.60
2022-08-09T05:55:03.272Z,18.70
2022-08-09T05:57:50.353Z,18.80
2022-08-09T06:00:18.317Z,18.80
2022-08-09T06:02:46.850Z,19.60
2022-08-09T06:05:13.662Z,19.00
2022-08-09T06:07:40.425Z,19.10
2022-08-09T06:10:15.947Z,19.20
2022-08-09T06:12:45.063Z,19.30
2022-08-09T06:15:24.461Z,19.50
2022-08-09T06:17:53.238Z,19.70
2022-08-09T06:20:20.575Z,19.70
2022-08-09T06:22:47.756Z,19.70
2022-08-09T06:25:16.943Z,19.80
2022-08-09T06:27:51.425Z,19.80
2022-08-09T06:30:18.859Z,19.80
2022-08-09T06:33:00.960Z,19.90
2022-08-09T06:35:55.870Z,20.00
2022-08-09T06:38:20.066Z,20.20
2022-08-09T06:40:58.732Z,20.20
2022-08-09T06:43:27.198Z,20.30
2022-08-09T06:46:04.902Z,20.40
2022-08-09T06:48:37.089Z,20.50
2022-08-09T06:51:10.379Z,20.50
2022-08-09T06:53:38.482Z,20.60
2022-08-09T06:56:09.166Z,20.70
2022-08-09T07:00:52.658Z,20.70
2022-08-09T07:01:24.192Z,20.80
2022-08-09T07:03:57.843Z,20.80
2022-08-09T07:06:30.603Z,20.90
2022-08-09T07:08:57.307Z,21.00
2022-08-09T07:11:25.542Z,21.00
2022-08-09T07:14:04.250Z,21.00
2022-08-09T07:16:44.063Z,21.10
2022-08-09T07:19:18.685Z,21.20
2022-08-09T07:21:57.185Z,21.30
2022-08-09T07:24:32.896Z,21.60
2022-08-09T07:27:24.057Z,21.60
2022-08-09T07:29:57.183Z,21.70
2022-08-09T07:32:33.446Z,21.80
2022-08-09T07:35:11.370Z,21.80
2022-08-09T07:37:43.360Z,21.80
2022-08-09T07:40:17.711Z,22.00
2022-08-09T07:42:56.996Z,22.00
2022-08-09T07:45:39.828Z,22.10
2022-08-09T07:48:25.481Z,22.30
2022-08-09T07:51:10.215Z,22.40
2022-08-09T07:54:05.043Z,22.60
2022-08-09T07:56:31.264Z,22.50
2022-08-09T07:58:59.260Z,22.70
2022-08-09T08:01:32.829Z,22.80
2022-08-09T08:04:00.996Z,22.80
2022-08-09T08:06:32.042Z,22.80
2022-08-09T08:09:05.042Z,22.90
2022-08-09T08:12:24.286Z,22.90
2022-08-09T08:14:24.196Z,23.00
2022-08-09T08:17:07.343Z,23.30
2022-08-09T08:19:34.958Z,23.20
2022-08-09T08:22:02.178Z,23.30
2022-08-09T08:24:35.429Z,23.30
2022-08-09T08:27:16.735Z,23.40
2022-08-09T08:29:45.271Z,23.30
2022-08-09T08:32:24.224Z,23.30
2022-08-09T08:34:58.754Z,23.30
2022-08-09T08:37:41.038Z,23.30
2022-08-09T08:40:14.584Z,23.40
2022-08-09T08:42:47.278Z,23.40
2022-08-09T08:45:16.441Z,23.50
2022-08-09T08:47:45.294Z,23.60
2022-08-09T08:50:15.647Z,23.60
2022-08-09T08:52:59.898Z,23.70
2022-08-09T08:55:27.903Z,23.80
2022-08-09T08:57:56.950Z,23.90
2022-08-09T09:00:27.894Z,23.90
2022-08-09T09:03:08.816Z,24.00
2022-08-09T09:05:59.674Z,24.00
2022-08-09T09:08:40.165Z,23.90
2022-08-09T09:11:08.751Z,24.00
2022-08-09T09:13:57.620Z,24.10
2022-08-09T09:16:29.851Z,24.10
2022-08-09T09:19:22.414Z,24.30
2022-08-09T09:21:58.009Z,24.30
2022-08-09T09:24:38.073Z,24.40
2022-08-09T09:27:07.168Z,24.40
2022-08-09T09:30:08.409Z,24.50
2022-08-09T09:32:32.428Z,24.50
2022-08-09T09:35:02.911Z,24.50
2022-08-09T09:37:34.484Z,24.50
2022-08-09T09:40:03.692Z,24.50
2022-08-09T09:42:31.240Z,24.70
2022-08-09T09:45:08.315Z,24.70
2022-08-09T09:47:40.805Z,24.70
2022-08-09T09:50:23.122Z,24.50
2022-08-09T09:52:56.056Z,24.70
2022-08-09T09:55:32.573Z,24.80
2022-08-09T09:58:18.997Z,24.90
2022-08-09T10:00:54.677Z,25.10
2022-08-09T10:03:56.275Z,24.80
2022-08-09T10:06:26.054Z,25.20
2022-08-09T10:09:02.726Z,25.30
2022-08-09T10:12:00.163Z,25.60
2022-08-09T10:14:32.891Z,25.90
2022-08-09T10:17:39.488Z,25.30
2022-08-09T10:19:59.140Z,25.40
2022-08-09T10:22:35.168Z,25.30
2022-08-09T10:25:11.742Z,25.30
2022-08-09T10:27:56.864Z,25.60
2022-08-09T10:33:29.807Z,25.80
2022-08-09T10:36:04.638Z,25.70
2022-08-09T10:38:34.350Z,25.70
2022-08-09T10:41:20.569Z,25.70
2022-08-09T10:44:01.110Z,25.70
2022-08-09T10:46:57.480Z,25.70
2022-08-09T10:49:54.360Z,25.80
2022-08-09T10:52:42.992Z,25.90
2022-08-09T10:55:24.390Z,26.10
2022-08-09T10:57:55.815Z,26.20
2022-08-09T11:00:36.963Z,26.30
2022-08-09T11:03:49.584Z,26.30
2022-08-09T11:06:15.733Z,26.40
2022-08-09T11:08:51.747Z,26.50
2022-08-09T11:11:22.933Z,26.70
2022-08-09T11:14:28.340Z,26.70
2022-08-09T11:16:56.548Z,26.70
2022-08-09T11:20:10.636Z,26.80
2022-08-09T11:22:40.432Z,26.80
2022-08-09T11:25:17.314Z,27.10
2022-08-09T11:28:03.943Z,27.50
2022-08-09T11:30:37.641Z,27.20
2022-08-09T11:33:16.654Z,27.30
2022-08-09T11:35:54.596Z,27.30
2022-08-09T11:38:28.859Z,27.50
2022-08-09T11:41:38.566Z,27.60
2022-08-09T11:44:08.042Z,27.70
2022-08-09T11:46:54.835Z,28.00
2022-08-09T11:50:54.378Z,27.50
2022-08-09T11:53:57.686Z,27.90
2022-08-09T11:55:53.295Z,28.00
2022-08-09T11:58:33.209Z,28.10
2022-08-09T12:01:15.626Z,28.20
2022-08-09T12:04:00.664Z,28.30
2022-08-09T12:06:32.136Z,28.50
2022-08-09T12:09:19.255Z,28.70
2022-08-09T12:12:03.318Z,28.80
2022-08-09T12:14:40.433Z,28.60
2022-08-09T12:17:27.512Z,28.70
2022-08-09T12:20:03.664Z,29.00
2022-08-09T12:22:31.206Z,29.20
2022-08-09T12:25:15.391Z,29.50
2022-08-09T12:29:13.892Z,29.70
2022-08-09T12:30:35.354Z,29.70
2022-08-09T12:33:06.170Z,30.00
2022-08-09T12:35:40.889Z,29.60
2022-08-09T12:38:29.520Z,29.90
2022-08-09T12:41:05.507Z,29.70
2022-08-09T12:44:06.840Z,29.90
2022-08-09T12:46:26.043Z,29.90
2022-08-09T12:48:57.091Z,30.00
2022-08-09T12:51:52.817Z,30.30
2022-08-09T12:54:11.675Z,30.20
2022-08-09T12:56:53.824Z,30.00
2022-08-09T12:59:23.315Z,30.50
2022-08-09T13:01:58.685Z,30.60
2022-08-09T13:04:37.273Z,30.60
2022-08-09T13:07:13.768Z,30.70
2022-08-09T13:09:52.715Z,30.80
2022-08-09T13:12:22.217Z,30.80
2022-08-09T13:14:53.837Z,30.80
2022-08-09T13:17:44.104Z,30.80
2022-08-09T13:20:14.075Z,31.10
2022-08-09T13:23:01.296Z,31.50
2022-08-09T13:25:54.830Z,32.30
2022-08-09T13:28:34.454Z,32.00
2022-08-09T13:32:15.071Z,32.00
2022-08-09T13:33:58.659Z,31.60
2022-08-09T13:36:41.540Z,31.60
2022-08-09T13:41:19.276Z,31.60
2022-08-09T13:42:05.488Z,32.00
2022-08-09T13:44:42.643Z,32.20
2022-08-09T13:47:33.768Z,32.20
2022-08-09T13:50:17.915Z,32.40
2022-08-09T13:52:56.874Z,32.50
2022-08-09T13:55:23.573Z,32.10
2022-08-09T13:57:56.230Z,31.90
2022-08-09T14:00:28.634Z,31.90
2022-08-09T14:03:17.189Z,31.70
2022-08-09T14:05:58.314Z,31.50
2022-08-09T14:08:29.180Z,31.80
2022-08-09T14:10:57.318Z,31.70
2022-08-09T14:14:16.198Z,31.80
2022-08-09T14:16:16.969Z,31.70
2022-08-09T14:18:50.197Z,31.60
2022-08-09T14:21:21.096Z,31.10
2022-08-09T14:23:54.708Z,30.90
2022-08-09T14:26:32.589Z,30.70
2022-08-09T14:29:08.008Z,30.80
2022-08-09T14:31:54.111Z,30.50
2022-08-09T14:34:31.423Z,30.50
2022-08-09T14:37:01.939Z,30.60
2022-08-09T14:39:46.018Z,30.70
2022-08-09T14:42:28.937Z,30.80
2022-08-09T14:45:01.450Z,31.10
2022-08-09T14:47:49.668Z,31.50
2022-08-09T14:50:24.356Z,31.80
2022-08-09T14:52:51.113Z,31.90
2022-08-09T14:55:20.465Z,32.00
2022-08-09T14:57:47.872Z,31.80
2022-08-09T15:00:16.216Z,32.00
2022-08-09T15:02:42.878Z,32.30
2022-08-09T15:05:16.864Z,32.50
2022-08-09T15:07:45.304Z,32.40
2022-08-09T15:10:14.393Z,32.60
2022-08-09T15:12:44.883Z,32.30
2022-08-09T15:15:13.132Z,32.20
2022-08-09T15:17:47.319Z,32.10
2022-08-09T15:21:53.736Z,32.00
2022-08-09T15:24:03.038Z,32.10
2022-08-09T15:25:53.719Z,32.50
2022-08-09T15:28:27.896Z,32.70
2022-08-09T15:31:08.746Z,32.80
2022-08-09T15:34:27.311Z,32.90
2022-08-09T15:36:29.178Z,32.80
2022-08-09T15:38:58.865Z,33.00
2022-08-09T15:41:32.262Z,32.80
2022-08-09T15:44:03.006Z,32.60
2022-08-09T15:46:34.151Z,32.70
2022-08-09T15:49:22.704Z,33.20
2022-08-09T15:52:04.417Z,33.20
2022-08-09T15:54:46.297Z,33.60
2022-08-09T15:57:35.259Z,33.50
2022-08-09T16:00:15.158Z,33.50
2022-08-09T16:02:54.113Z,33.20
2022-08-09T16:05:23.034Z,33.30
2022-08-09T16:07:50.435Z,33.20
2022-08-09T16:10:55.334Z,33.40
2022-08-09T16:13:04.980Z,33.10
2022-08-09T16:16:10.121Z,33.30
2022-08-09T16:18:32.583Z,33.20
2022-08-09T16:20:59.359Z,33.20
2022-08-09T16:23:27.090Z,33.30
2022-08-09T16:26:01.061Z,33.20
2022-08-09T16:28:29.636Z,33.00
2022-08-09T16:30:58.954Z,33.00
2022-08-09T16:33:26.923Z,32.90
2022-08-09T16:35:59.712Z,32.70
2022-08-09T16:38:31.660Z,32.60
2022-08-09T16:40:59.037Z,32.90
2022-08-09T16:43:30.877Z,32.70
2022-08-09T16:45:57.683Z,32.60
2022-08-09T16:48:39.893Z,32.40
2022-08-09T16:51:14.206Z,32.20
2022-08-09T16:56:33.557Z,31.70
2022-08-09T16:59:06.771Z,31.70
2022-08-09T17:01:37.862Z,31.70
2022-08-09T17:04:06.734Z,32.20
2022-08-09T17:07:09.238Z,32.10
2022-08-09T17:09:45.873Z,32.10
2022-08-09T17:12:07.732Z,32.20
2022-08-09T17:14:34.492Z,31.90
2022-08-09T17:17:12.761Z,31.70
2022-08-09T17:20:29.903Z,31.70
2022-08-09T17:22:50.324Z,31.50
2022-08-09T17:25:19.792Z,31.70
2022-08-09T17:27:49.304Z,31.50
2022-08-09T17:30:26.414Z,31.30
2022-08-09T17:33:04.813Z,30.90
2022-08-09T17:35:34.231Z,30.50
2022-08-09T17:38:11.376Z,30.10
2022-08-09T17:40:41.487Z,29.90
2022-08-09T17:43:32.429Z,29.70
2022-08-09T17:46:06.245Z,29.50
2022-08-09T17:48:39.816Z,29.50
2022-08-09T17:51:17.230Z,29.10
2022-08-09T17:53:52.953Z,28.90
2022-08-09T17:56:26.614Z,28.80
2022-08-09T17:58:56.163Z,28.90
2022-08-09T18:01:23.581Z,28.70
2022-08-09T18:03:52.540Z,28.90
2022-08-09T18:06:31.301Z,28.70
2022-08-09T18:09:04.138Z,28.80
2022-08-09T18:12:05.481Z,28.80
2022-08-09T18:14:23.367Z,28.70
2022-08-09T18:16:52.974Z,28.70
2022-08-09T18:21:00.058Z,28.50
2022-08-09T18:22:16.674Z,28.70
2022-08-09T18:24:43.747Z,28.50
2022-08-09T18:27:18.769Z,28.30
2022-08-09T18:30:41.262Z,28.40
2022-08-09T18:32:54.249Z,28.30
2022-08-09T18:35:58.683Z,28.30
2022-08-09T18:38:09.424Z,28.20
2022-08-09T18:40:38.839Z,28.20
2022-08-09T18:43:05.547Z,28.10
2022-08-09T18:46:47.765Z,28.00
2022-08-09T18:48:21.778Z,27.80
2022-08-09T18:50:52.312Z,28.00
2022-08-09T18:53:22.310Z,27.90
2022-08-09T18:55:57.363Z,27.80
2022-08-09T18:58:33.216Z,27.60
2022-08-09T19:01:00.400Z,27.60
2022-08-09T19:03:28.793Z,27.70
2022-08-09T19:06:03.426Z,27.50
2022-08-09T19:08:32.939Z,27.40
2022-08-09T19:10:59.716Z,27.30
2022-08-09T19:13:49.709Z,27.20
2022-08-09T19:16:13.266Z,27.10
2022-08-09T19:18:47.503Z,27.10
2022-08-09T19:21:14.582Z,27.00
2022-08-09T19:24:32.096Z,26.80
2022-08-09T19:26:32.069Z,26.90
2022-08-09T19:29:15.730Z,26.70
2022-08-09T19:31:51.344Z,26.80
2022-08-09T19:34:23.018Z,26.70
2022-08-09T19:36:55.919Z,26.60
2022-08-09T19:39:43.539Z,26.80
2022-08-09T19:42:15.003Z,27.00
2022-08-09T19:44:49.393Z,26.40
2022-08-09T19:47:23.258Z,26.40
2022-08-09T19:50:07.317Z,26.30
2022-08-09T19:52:51.997Z,26.20
2022-08-09T19:55:25.571Z,26.10
2022-08-09T19:57:57.728Z,25.90
2022-08-09T20:00:27.003Z,25.80
2022-08-09T20:04:09.977Z,25.80
2022-08-09T20:05:46.737Z,25.70
2022-08-09T20:08:33.220Z,25.60
2022-08-09T20:11:04.394Z,25.50
2022-08-09T20:13:37.263Z,25.40
2022-08-09T20:16:49.896Z,25.30
2022-08-09T20:19:41.918Z,25.20
2022-08-09T20:21:56.390Z,25.20
2022-08-09T20:24:31.940Z,25.10
2022-08-09T20:27:02.476Z,25.10
2022-08-09T20:29:37.384Z,24.90
2022-08-09T20:32:30.205Z,24.90
2022-08-09T20:35:01.484Z,24.80
2022-08-09T20:37:37.920Z,24.70
2022-08-09T20:40:19.161Z,24.70
2022-08-09T20:43:12.020Z,24.60
2022-08-09T20:46:00.946Z,24.60
2022-08-09T20:48:32.000Z,24.60
2022-08-09T20:51:02.896Z,24.60
2022-08-09T20:53:37.768Z,24.50
2022-08-09T20:56:20.517Z,24.50
2022-08-09T20:58:58.216Z,24.50
2022-08-09T21:01:35.444Z,24.40
2022-08-09T21:05:54.868Z,24.40
2022-08-09T21:07:11.414Z,24.40
2022-08-09T21:09:45.514Z,24.30
2022-08-09T21:12:23.412Z,24.30
2022-08-09T21:14:50.243Z,24.30
2022-08-09T21:18:11.901Z,24.20
2022-08-09T21:20:22.380Z,24.10
2022-08-09T21:22:54.445Z,24.10
2022-08-09T21:25:44.077Z,24.10
2022-08-09T21:28:34.129Z,24.10
2022-08-09T21:31:16.649Z,24.00
2022-08-09T21:33:50.523Z,24.00
2022-08-09T21:36:18.099Z,24.00
2022-08-09T21:38:45.651Z,24.00
2022-08-09T21:41:59.721Z,23.90
2022-08-09T21:44:09.970Z,23.80
2022-08-09T21:46:36.619Z,23.80
2022-08-09T21:49:03.942Z,23.60
2022-08-09T21:51:36.410Z,23.80
2022-08-09T21:54:10.663Z,23.70
2022-08-09T21:56:44.908Z,23.60
2022-08-09T21:59:23.510Z,23.50
2022-08-09T22:02:00.226Z,23.70
2022-08-09T22:04:55.687Z,23.30
2022-08-09T22:07:23.304Z,23.30
2022-08-09T22:10:03.110Z,23.30
2022-08-09T22:12:30.578Z,23.20
2022-08-09T22:14:58.139Z,23.20
2022-08-09T22:17:25.270Z,23.60
2022-08-09T22:19:58.634Z,23.20
2022-08-09T22:22:27.724Z,23.10
2022-08-09T22:26:07.872Z,23.10
2022-08-09T22:27:41.072Z,23.00
2022-08-09T22:30:10.151Z,23.00
2022-08-09T22:32:37.633Z,22.90
2022-08-09T22:36:02.182Z,22.90
2022-08-09T22:38:03.411Z,22.80
2022-08-09T22:40:35.075Z,22.70
2022-08-09T22:43:08.663Z,22.60
2022-08-09T22:48:12.381Z,22.80
2022-08-09T22:48:35.982Z,22.60
2022-08-09T22:51:10.478Z,22.50
2022-08-09T22:53:58.113Z,22.50
2022-08-09T22:56:33.238Z,22.30
2022-08-09T22:59:05.990Z,22.30
2022-08-09T23:01:48.817Z,22.20
2022-08-09T23:04:15.595Z,22.20
2022-08-09T23:07:02.748Z,21.90
2022-08-09T23:09:29.561Z,22.10
2022-08-09T23:11:56.267Z,22.00
2022-08-09T23:14:31.471Z,21.90
2022-08-09T23:17:08.265Z,21.90
2022-08-09T23:20:07.479Z,21.90
2022-08-09T23:22:21.642Z,21.90
2022-08-09T23:24:48.842Z,21.80
2022-08-09T23:27:15.658Z,21.80
2022-08-09T23:29:42.456Z,21.80
2022-08-09T23:32:09.190Z,21.70
2022-08-09T23:34:36.646Z,21.70
2022-08-09T23:37:05.101Z,21.60
2022-08-09T23:39:32.263Z,21.50
2022-08-09T23:41:59.353Z,21.50
2022-08-09T23:44:26.294Z,21.40
2022-08-09T23:46:57.420Z,21.40
2022-08-09T23:49:25.639Z,21.40
2022-08-09T23:51:53.235Z,21.40
2022-08-09T23:54:20.987Z,21.40
2022-08-09T23:56:55.886Z,21.50
2022-08-09T23:59:24.500Z,21.10
